sensor_id;sensor_type;location;lat;lon;timestamp;P1;durP1;ratioP1;P2;durP2;ratioP2
13753;SDS011;6948;51.216;6.778;2023-05-10T00:00:56;12.03;;;10.93;;
13753;SDS011;6948;51.216;6.778;2023-05-10T00:03:22;13.10;;;11.90;;
13753;SDS011;6948;51.216;6.778;2023-05-10T00:05:48;13.10;;;11.90;;
13753;SDS011;6948;51.216;6.778;2023-05-10T00:08:14;13.70;;;12.30;;
13753;SDS011;6948;51.216;6.778;2023-05-10T00:10:39;15.23;;;13.77;;
13753;SDS011;6948;51.216;6.778;2023-05-10T00:13:06;14.53;;;13.23;;
13753;SDS011;6948;51.216;6.778;2023-05-10T00:15:31;17.20;;;15.60;;
13753;SDS011;6948;51.216;6.778;2023-05-10T00:17:57;15.83;;;14.33;;
13753;SDS011;6948;51.216;6.778;2023-05-10T00:20:23;18.00;;;16.20;;
13753;SDS011;6948;51.216;6.778;2023-05-10T00:22:49;19.07;;;17.20;;
13753;SDS011;6948;51.216;6.778;2023-05-10T00:25:14;19.40;;;17.50;;
13753;SDS011;6948;51.216;6.778;2023-05-10T00:27:40;21.03;;;19.03;;
13753;SDS011;6948;51.216;6.778;2023-05-10T00:30:06;22.27;;;20.07;;
13753;SDS011;6948;51.216;6.778;2023-05-10T00:32:32;20.53;;;18.47;;
13753;SDS011;6948;51.216;6.778;2023-05-10T00:34:58;18.33;;;16.43;;
13753;SDS011;6948;51.216;6.778;2023-05-10T00:37:23;18.33;;;16.43;;
13753;SDS011;6948;51.216;6.778;2023-05-10T00:39:49;17.77;;;15.97;;
13753;SDS011;6948;51.216;6.778;2023-05-10T00:42:15;15.93;;;14.53;;
13753;SDS011;6948;51.216;6.778;2023-05-10T00:44:40;15.77;;;14.30;;
13753;SDS011;6948;51.216;6.778;2023-05-10T00:47:06;15.63;;;14.23;;
13753;SDS011;6948;51.216;6.778;2023-05-10T00:49:33;15.13;;;13.73;;
13753;SDS011;6948;51.216;6.778;2023-05-10T00:51:59;14.80;;;13.40;;
13753;SDS011;6948;51.216;6.778;2023-05-10T00:54:26;14.50;;;13.10;;
13753;SDS011;6948;51.216;6.778;2023-05-10T00:56:52;13.90;;;12.70;;
13753;SDS011;6948;51.216;6.778;2023-05-10T00:59:18;12.17;;;10.97;;
13753;SDS011;6948;51.216;6.778;2023-05-10T01:01:45;9.27;;;8.37;;
13753;SDS011;6948;51.216;6.778;2023-05-10T01:04:12;8.50;;;7.70;;
13753;SDS011;6948;51.216;6.778;2023-05-10T01:06:39;8.53;;;7.77;;
13753;SDS011;6948;51.216;6.778;2023-05-10T01:09:06;9.40;;;8.50;;
13753;SDS011;6948;51.216;6.778;2023-05-10T01:11:34;9.00;;;8.10;;
13753;SDS011;6948;51.216;6.778;2023-05-10T01:14:01;9.97;;;8.93;;
13753;SDS011;6948;51.216;6.778;2023-05-10T01:16:28;9.63;;;8.70;;
13753;SDS011;6948;51.216;6.778;2023-05-10T01:18:56;10.33;;;9.43;;
13753;SDS011;6948;51.216;6.778;2023-05-10T01:21:27;11.07;;;10.07;;
13753;SDS011;6948;51.216;6.778;2023-05-10T01:27:12;10.83;;;9.73;;
13753;SDS011;6948;51.216;6.778;2023-05-10T01:32:37;10.50;;;9.50;;
13753;SDS011;6948;51.216;6.778;2023-05-10T01:38:04;9.37;;;8.57;;
13753;SDS011;6948;51.216;6.778;2023-05-10T01:43:32;10.30;;;9.30;;
13753;SDS011;6948;51.216;6.778;2023-05-10T01:46:09;10.40;;;9.50;;
13753;SDS011;6948;51.216;6.778;2023-05-10T01:48:41;11.87;;;9.77;;
13753;SDS011;6948;51.216;6.778;2023-05-10T01:51:15;10.40;;;9.40;;
13753;SDS011;6948;51.216;6.778;2023-05-10T01:54:04;11.43;;;10.33;;
13753;SDS011;6948;51.216;6.778;2023-05-10T01:56:32;11.87;;;10.70;;
13753;SDS011;6948;51.216;6.778;2023-05-10T01:58:59;11.33;;;10.07;;
13753;SDS011;6948;51.216;6.778;2023-05-10T02:01:30;11.20;;;10.10;;
13753;SDS011;6948;51.216;6.778;2023-05-10T02:03:56;11.00;;;9.97;;
13753;SDS011;6948;51.216;6.778;2023-05-10T02:06:24;10.73;;;9.73;;
13753;SDS011;6948;51.216;6.778;2023-05-10T02:08:51;9.97;;;9.07;;
13753;SDS011;6948;51.216;6.778;2023-05-10T02:11:18;10.40;;;9.40;;
13753;SDS011;6948;51.216;6.778;2023-05-10T02:13:46;9.67;;;8.77;;
13753;SDS011;6948;51.216;6.778;2023-05-10T02:16:14;9.70;;;8.80;;
13753;SDS011;6948;51.216;6.778;2023-05-10T02:18:41;9.53;;;8.63;;
13753;SDS011;6948;51.216;6.778;2023-05-10T02:21:08;9.23;;;8.43;;
13753;SDS011;6948;51.216;6.778;2023-05-10T02:23:36;8.17;;;7.47;;
13753;SDS011;6948;51.216;6.778;2023-05-10T02:26:03;8.30;;;7.50;;
13753;SDS011;6948;51.216;6.778;2023-05-10T02:28:30;8.63;;;7.73;;
13753;SDS011;6948;51.216;6.778;2023-05-10T02:30:58;9.07;;;8.17;;
13753;SDS011;6948;51.216;6.778;2023-05-10T02:33:24;8.87;;;8.07;;
13753;SDS011;6948;51.216;6.778;2023-05-10T02:35:50;8.80;;;8.00;;
13753;SDS011;6948;51.216;6.778;2023-05-10T02:38:17;8.33;;;7.57;;
13753;SDS011;6948;51.216;6.778;2023-05-10T02:40:45;8.30;;;7.43;;
13753;SDS011;6948;51.216;6.778;2023-05-10T02:43:12;8.70;;;7.80;;
13753;SDS011;6948;51.216;6.778;2023-05-10T02:45:41;9.13;;;7.77;;
13753;SDS011;6948;51.216;6.778;2023-05-10T02:48:10;9.30;;;8.40;;
13753;SDS011;6948;51.216;6.778;2023-05-10T02:50:37;9.23;;;8.20;;
13753;SDS011;6948;51.216;6.778;2023-05-10T02:53:09;9.30;;;8.20;;
13753;SDS011;6948;51.216;6.778;2023-05-10T02:55:40;9.97;;;8.23;;
13753;SDS011;6948;51.216;6.778;2023-05-10T02:58:07;8.70;;;7.87;;
13753;SDS011;6948;51.216;6.778;2023-05-10T03:00:33;10.90;;;8.83;;
13753;SDS011;6948;51.216;6.778;2023-05-10T03:03:00;8.77;;;7.87;;
13753;SDS011;6948;51.216;6.778;2023-05-10T03:05:26;9.03;;;8.13;;
13753;SDS011;6948;51.216;6.778;2023-05-10T03:07:51;8.80;;;7.97;;
13753;SDS011;6948;51.216;6.778;2023-05-10T03:10:17;8.93;;;8.13;;
13753;SDS011;6948;51.216;6.778;2023-05-10T03:12:52;9.50;;;8.60;;
13753;SDS011;6948;51.216;6.778;2023-05-10T03:18:42;10.13;;;9.13;;
13753;SDS011;6948;51.216;6.778;2023-05-10T03:21:13;9.50;;;8.47;;
13753;SDS011;6948;51.216;6.778;2023-05-10T03:23:43;9.33;;;8.23;;
13753;SDS011;6948;51.216;6.778;2023-05-10T03:26:17;8.93;;;8.10;;
13753;SDS011;6948;51.216;6.778;2023-05-10T03:28:47;9.33;;;7.50;;
13753;SDS011;6948;51.216;6.778;2023-05-10T03:31:13;8.33;;;7.43;;
13753;SDS011;6948;51.216;6.778;2023-05-10T03:33:47;8.87;;;7.77;;
13753;SDS011;6948;51.216;6.778;2023-05-10T03:36:14;8.67;;;7.70;;
13753;SDS011;6948;51.216;6.778;2023-05-10T03:38:40;8.00;;;7.20;;
13753;SDS011;6948;51.216;6.778;2023-05-10T03:41:05;8.30;;;7.30;;
13753;SDS011;6948;51.216;6.778;2023-05-10T03:43:31;8.33;;;7.40;;
13753;SDS011;6948;51.216;6.778;2023-05-10T03:45:56;8.90;;;8.00;;
13753;SDS011;6948;51.216;6.778;2023-05-10T03:48:22;8.70;;;7.90;;
13753;SDS011;6948;51.216;6.778;2023-05-10T03:50:48;9.40;;;8.20;;
13753;SDS011;6948;51.216;6.778;2023-05-10T03:53:14;9.70;;;8.80;;
13753;SDS011;6948;51.216;6.778;2023-05-10T03:55:40;10.47;;;9.37;;
13753;SDS011;6948;51.216;6.778;2023-05-10T03:58:06;11.63;;;9.63;;
13753;SDS011;6948;51.216;6.778;2023-05-10T04:00:32;10.50;;;9.43;;
13753;SDS011;6948;51.216;6.778;2023-05-10T04:02:57;10.80;;;9.80;;
13753;SDS011;6948;51.216;6.778;2023-05-10T04:05:23;14.20;;;10.07;;
13753;SDS011;6948;51.216;6.778;2023-05-10T04:07:49;12.07;;;10.80;;
13753;SDS011;6948;51.216;6.778;2023-05-10T04:10:15;13.10;;;11.80;;
13753;SDS011;6948;51.216;6.778;2023-05-10T04:12:41;13.23;;;11.83;;
13753;SDS011;6948;51.216;6.778;2023-05-10T04:15:07;14.27;;;12.70;;
13753;SDS011;6948;51.216;6.778;2023-05-10T04:17:33;15.33;;;13.73;;
13753;SDS011;6948;51.216;6.778;2023-05-10T04:19:59;15.17;;;13.60;;
13753;SDS011;6948;51.216;6.778;2023-05-10T04:22:24;14.93;;;13.33;;
13753;SDS011;6948;51.216;6.778;2023-05-10T04:24:50;15.27;;;13.73;;
13753;SDS011;6948;51.216;6.778;2023-05-10T04:27:16;19.33;;;15.60;;
13753;SDS011;6948;51.216;6.778;2023-05-10T04:29:41;18.53;;;16.53;;
13753;SDS011;6948;51.216;6.778;2023-05-10T04:32:07;18.77;;;16.27;;
13753;SDS011;6948;51.216;6.778;2023-05-10T04:34:35;18.80;;;16.50;;
13753;SDS011;6948;51.216;6.778;2023-05-10T04:37:01;20.40;;;17.93;;
13753;SDS011;6948;51.216;6.778;2023-05-10T04:39:26;21.93;;;18.70;;
13753;SDS011;6948;51.216;6.778;2023-05-10T04:41:52;20.43;;;17.60;;
13753;SDS011;6948;51.216;6.778;2023-05-10T04:44:18;20.87;;;18.20;;
13753;SDS011;6948;51.216;6.778;2023-05-10T04:46:43;24.20;;;19.10;;
13753;SDS011;6948;51.216;6.778;2023-05-10T04:49:09;21.37;;;19.00;;
13753;SDS011;6948;51.216;6.778;2023-05-10T04:51:34;23.17;;;19.43;;
13753;SDS011;6948;51.216;6.778;2023-05-10T04:54:00;25.57;;;19.67;;
13753;SDS011;6948;51.216;6.778;2023-05-10T04:56:26;23.50;;;19.90;;
13753;SDS011;6948;51.216;6.778;2023-05-10T04:58:51;24.13;;;21.07;;
13753;SDS011;6948;51.216;6.778;2023-05-10T05:01:17;23.73;;;20.33;;
13753;SDS011;6948;51.216;6.778;2023-05-10T05:03:43;24.73;;;20.20;;
13753;SDS011;6948;51.216;6.778;2023-05-10T05:06:08;25.50;;;20.53;;
13753;SDS011;6948;51.216;6.778;2023-05-10T05:08:34;26.67;;;20.43;;
13753;SDS011;6948;51.216;6.778;2023-05-10T05:11:00;21.73;;;19.00;;
13753;SDS011;6948;51.216;6.778;2023-05-10T05:13:25;21.40;;;18.53;;
13753;SDS011;6948;51.216;6.778;2023-05-10T05:15:51;23.27;;;18.50;;
13753;SDS011;6948;51.216;6.778;2023-05-10T05:18:17;21.40;;;17.80;;
13753;SDS011;6948;51.216;6.778;2023-05-10T05:20:42;20.57;;;17.73;;
13753;SDS011;6948;51.216;6.778;2023-05-10T05:23:08;21.07;;;17.87;;
13753;SDS011;6948;51.216;6.778;2023-05-10T05:25:33;19.50;;;17.43;;
13753;SDS011;6948;51.216;6.778;2023-05-10T05:27:59;21.27;;;18.43;;
13753;SDS011;6948;51.216;6.778;2023-05-10T05:30:25;20.73;;;17.57;;
13753;SDS011;6948;51.216;6.778;2023-05-10T05:32:50;19.47;;;16.47;;
13753;SDS011;6948;51.216;6.778;2023-05-10T05:35:16;19.77;;;16.27;;
13753;SDS011;6948;51.216;6.778;2023-05-10T05:37:42;20.40;;;15.10;;
13753;SDS011;6948;51.216;6.778;2023-05-10T05:40:08;15.57;;;13.97;;
13753;SDS011;6948;51.216;6.778;2023-05-10T05:42:38;21.23;;;15.37;;
13753;SDS011;6948;51.216;6.778;2023-05-10T05:45:03;17.67;;;14.37;;
13753;SDS011;6948;51.216;6.778;2023-05-10T05:47:30;17.53;;;14.20;;
13753;SDS011;6948;51.216;6.778;2023-05-10T05:49:55;18.37;;;13.83;;
13753;SDS011;6948;51.216;6.778;2023-05-10T05:52:21;15.77;;;13.20;;
13753;SDS011;6948;51.216;6.778;2023-05-10T05:54:47;17.83;;;13.37;;
13753;SDS011;6948;51.216;6.778;2023-05-10T05:57:12;18.03;;;14.00;;
13753;SDS011;6948;51.216;6.778;2023-05-10T05:59:38;18.23;;;13.47;;
13753;SDS011;6948;51.216;6.778;2023-05-10T06:02:08;19.83;;;13.07;;
13753;SDS011;6948;51.216;6.778;2023-05-10T06:04:34;15.33;;;12.93;;
13753;SDS011;6948;51.216;6.778;2023-05-10T06:07:00;16.87;;;14.10;;
13753;SDS011;6948;51.216;6.778;2023-05-10T06:09:25;14.73;;;12.90;;
13753;SDS011;6948;51.216;6.778;2023-05-10T06:11:51;16.87;;;13.23;;
13753;SDS011;6948;51.216;6.778;2023-05-10T06:14:17;17.83;;;13.00;;
13753;SDS011;6948;51.216;6.778;2023-05-10T06:16:44;15.57;;;12.73;;
13753;SDS011;6948;51.216;6.778;2023-05-10T06:19:10;17.87;;;13.17;;
13753;SDS011;6948;51.216;6.778;2023-05-10T06:21:36;17.53;;;13.47;;
13753;SDS011;6948;51.216;6.778;2023-05-10T06:24:01;17.70;;;14.87;;
13753;SDS011;6948;51.216;6.778;2023-05-10T06:26:27;24.33;;;14.67;;
13753;SDS011;6948;51.216;6.778;2023-05-10T06:28:53;18.30;;;14.10;;
13753;SDS011;6948;51.216;6.778;2023-05-10T06:31:19;21.43;;;15.27;;
13753;SDS011;6948;51.216;6.778;2023-05-10T06:33:44;21.03;;;15.43;;
13753;SDS011;6948;51.216;6.778;2023-05-10T06:36:10;19.93;;;15.47;;
13753;SDS011;6948;51.216;6.778;2023-05-10T06:38:36;21.20;;;15.17;;
13753;SDS011;6948;51.216;6.778;2023-05-10T06:41:02;21.90;;;14.80;;
13753;SDS011;6948;51.216;6.778;2023-05-10T06:43:28;19.03;;;14.97;;
13753;SDS011;6948;51.216;6.778;2023-05-10T06:45:53;21.27;;;14.30;;
13753;SDS011;6948;51.216;6.778;2023-05-10T06:48:19;19.77;;;13.97;;
13753;SDS011;6948;51.216;6.778;2023-05-10T06:50:45;21.00;;;13.87;;
13753;SDS011;6948;51.216;6.778;2023-05-10T06:53:10;19.87;;;14.03;;
13753;SDS011;6948;51.216;6.778;2023-05-10T06:55:37;19.17;;;13.83;;
13753;SDS011;6948;51.216;6.778;2023-05-10T06:58:02;20.77;;;15.17;;
13753;SDS011;6948;51.216;6.778;2023-05-10T07:00:31;27.13;;;16.47;;
13753;SDS011;6948;51.216;6.778;2023-05-10T07:02:57;23.53;;;16.03;;
13753;SDS011;6948;51.216;6.778;2023-05-10T07:05:23;24.53;;;16.67;;
13753;SDS011;6948;51.216;6.778;2023-05-10T07:07:49;21.53;;;15.80;;
13753;SDS011;6948;51.216;6.778;2023-05-10T07:10:15;23.47;;;17.27;;
13753;SDS011;6948;51.216;6.778;2023-05-10T07:12:40;25.13;;;16.10;;
13753;SDS011;6948;51.216;6.778;2023-05-10T07:15:06;24.93;;;16.17;;
13753;SDS011;6948;51.216;6.778;2023-05-10T07:17:33;19.93;;;15.23;;
13753;SDS011;6948;51.216;6.778;2023-05-10T07:19:59;22.03;;;15.20;;
13753;SDS011;6948;51.216;6.778;2023-05-10T07:22:25;22.93;;;15.93;;
13753;SDS011;6948;51.216;6.778;2023-05-10T07:24:51;22.10;;;14.67;;
13753;SDS011;6948;51.216;6.778;2023-05-10T07:27:17;22.90;;;14.57;;
13753;SDS011;6948;51.216;6.778;2023-05-10T07:29:42;19.77;;;14.70;;
13753;SDS011;6948;51.216;6.778;2023-05-10T07:32:08;19.40;;;14.57;;
13753;SDS011;6948;51.216;6.778;2023-05-10T07:34:34;17.50;;;13.30;;
13753;SDS011;6948;51.216;6.778;2023-05-10T07:37:00;19.10;;;13.60;;
13753;SDS011;6948;51.216;6.778;2023-05-10T07:39:27;17.57;;;12.73;;
13753;SDS011;6948;51.216;6.778;2023-05-10T07:41:53;18.97;;;13.17;;
13753;SDS011;6948;51.216;6.778;2023-05-10T07:44:20;18.93;;;12.57;;
13753;SDS011;6948;51.216;6.778;2023-05-10T07:46:46;15.17;;;12.77;;
13753;SDS011;6948;51.216;6.778;2023-05-10T07:49:12;17.40;;;12.80;;
13753;SDS011;6948;51.216;6.778;2023-05-10T07:51:38;19.80;;;13.70;;
13753;SDS011;6948;51.216;6.778;2023-05-10T07:54:04;23.97;;;17.83;;
13753;SDS011;6948;51.216;6.778;2023-05-10T07:56:30;27.80;;;21.07;;
13753;SDS011;6948;51.216;6.778;2023-05-10T07:58:57;29.00;;;21.20;;
13753;SDS011;6948;51.216;6.778;2023-05-10T08:01:24;38.90;;;24.27;;
13753;SDS011;6948;51.216;6.778;2023-05-10T08:03:51;33.23;;;24.07;;
13753;SDS011;6948;51.216;6.778;2023-05-10T08:06:18;35.80;;;25.10;;
13753;SDS011;6948;51.216;6.778;2023-05-10T08:08:46;35.77;;;25.77;;
13753;SDS011;6948;51.216;6.778;2023-05-10T08:11:17;39.63;;;26.93;;
13753;SDS011;6948;51.216;6.778;2023-05-10T08:13:44;43.57;;;28.20;;
13753;SDS011;6948;51.216;6.778;2023-05-10T08:16:10;39.00;;;27.13;;
13753;SDS011;6948;51.216;6.778;2023-05-10T08:18:36;42.73;;;28.83;;
13753;SDS011;6948;51.216;6.778;2023-05-10T08:21:02;39.70;;;29.80;;
13753;SDS011;6948;51.216;6.778;2023-05-10T08:23:31;44.23;;;31.50;;
13753;SDS011;6948;51.216;6.778;2023-05-10T08:25:56;43.13;;;30.33;;
13753;SDS011;6948;51.216;6.778;2023-05-10T08:28:22;46.20;;;30.77;;
13753;SDS011;6948;51.216;6.778;2023-05-10T08:30:49;41.80;;;30.17;;
13753;SDS011;6948;51.216;6.778;2023-05-10T08:33:15;40.77;;;29.53;;
13753;SDS011;6948;51.216;6.778;2023-05-10T08:35:42;38.87;;;29.17;;
13753;SDS011;6948;51.216;6.778;2023-05-10T08:38:14;40.73;;;28.50;;
13753;SDS011;6948;51.216;6.778;2023-05-10T08:40:43;42.20;;;29.53;;
13753;SDS011;6948;51.216;6.778;2023-05-10T08:43:10;34.43;;;28.07;;
13753;SDS011;6948;51.216;6.778;2023-05-10T08:45:38;35.83;;;27.53;;
13753;SDS011;6948;51.216;6.778;2023-05-10T08:48:06;34.33;;;26.60;;
13753;SDS011;6948;51.216;6.778;2023-05-10T08:50:35;37.40;;;26.97;;
13753;SDS011;6948;51.216;6.778;2023-05-10T08:53:03;37.33;;;27.37;;
13753;SDS011;6948;51.216;6.778;2023-05-10T08:55:32;37.03;;;26.87;;
13753;SDS011;6948;51.216;6.778;2023-05-10T08:58:14;34.50;;;26.63;;
13753;SDS011;6948;51.216;6.778;2023-05-10T09:00:40;34.47;;;26.73;;
13753;SDS011;6948;51.216;6.778;2023-05-10T09:03:07;35.13;;;25.33;;
13753;SDS011;6948;51.216;6.778;2023-05-10T09:05:44;31.43;;;23.50;;
13753;SDS011;6948;51.216;6.778;2023-05-10T09:08:11;31.43;;;22.13;;
13753;SDS011;6948;51.216;6.778;2023-05-10T09:10:38;37.20;;;23.17;;
13753;SDS011;6948;51.216;6.778;2023-05-10T09:13:10;28.93;;;20.90;;
13753;SDS011;6948;51.216;6.778;2023-05-10T09:15:39;25.10;;;18.57;;
13753;SDS011;6948;51.216;6.778;2023-05-10T09:18:05;20.40;;;16.77;;
13753;SDS011;6948;51.216;6.778;2023-05-10T09:20:31;23.57;;;17.53;;
13753;SDS011;6948;51.216;6.778;2023-05-10T09:22:56;21.10;;;17.33;;
13753;SDS011;6948;51.216;6.778;2023-05-10T09:25:22;24.47;;;17.57;;
13753;SDS011;6948;51.216;6.778;2023-05-10T09:27:48;21.57;;;16.53;;
13753;SDS011;6948;51.216;6.778;2023-05-10T09:30:15;22.00;;;16.80;;
13753;SDS011;6948;51.216;6.778;2023-05-10T09:32:43;22.03;;;17.13;;
13753;SDS011;6948;51.216;6.778;2023-05-10T09:35:11;19.90;;;17.30;;
13753;SDS011;6948;51.216;6.778;2023-05-10T09:37:39;19.97;;;16.87;;
13753;SDS011;6948;51.216;6.778;2023-05-10T09:40:07;19.30;;;16.33;;
13753;SDS011;6948;51.216;6.778;2023-05-10T09:42:36;21.77;;;16.70;;
13753;SDS011;6948;51.216;6.778;2023-05-10T09:45:03;19.90;;;15.63;;
13753;SDS011;6948;51.216;6.778;2023-05-10T09:47:31;17.70;;;15.00;;
13753;SDS011;6948;51.216;6.778;2023-05-10T09:49:59;18.33;;;15.77;;
13753;SDS011;6948;51.216;6.778;2023-05-10T09:52:30;19.67;;;15.33;;
13753;SDS011;6948;51.216;6.778;2023-05-10T09:54:56;18.20;;;13.87;;
13753;SDS011;6948;51.216;6.778;2023-05-10T09:57:22;16.83;;;12.73;;
13753;SDS011;6948;51.216;6.778;2023-05-10T09:59:50;17.77;;;13.07;;
13753;SDS011;6948;51.216;6.778;2023-05-10T10:02:16;19.60;;;13.23;;
13753;SDS011;6948;51.216;6.778;2023-05-10T10:04:42;15.50;;;13.47;;
13753;SDS011;6948;51.216;6.778;2023-05-10T10:07:08;18.13;;;13.67;;
13753;SDS011;6948;51.216;6.778;2023-05-10T10:09:34;16.50;;;12.83;;
13753;SDS011;6948;51.216;6.778;2023-05-10T10:12:00;19.00;;;12.93;;
13753;SDS011;6948;51.216;6.778;2023-05-10T10:14:27;15.93;;;13.10;;
13753;SDS011;6948;51.216;6.778;2023-05-10T10:16:53;19.03;;;14.03;;
13753;SDS011;6948;51.216;6.778;2023-05-10T10:19:19;19.50;;;15.03;;
13753;SDS011;6948;51.216;6.778;2023-05-10T10:21:46;19.87;;;15.77;;
13753;SDS011;6948;51.216;6.778;2023-05-10T10:24:12;18.47;;;14.67;;
13753;SDS011;6948;51.216;6.778;2023-05-10T10:26:38;18.67;;;16.03;;
13753;SDS011;6948;51.216;6.778;2023-05-10T10:31:47;18.33;;;14.57;;
13753;SDS011;6948;51.216;6.778;2023-05-10T10:34:26;17.70;;;13.90;;
13753;SDS011;6948;51.216;6.778;2023-05-10T10:36:55;17.80;;;14.17;;
13753;SDS011;6948;51.216;6.778;2023-05-10T10:39:22;17.23;;;13.77;;
13753;SDS011;6948;51.216;6.778;2023-05-10T10:41:51;14.43;;;12.13;;
13753;SDS011;6948;51.216;6.778;2023-05-10T10:52:20;14.77;;;12.10;;
13753;SDS011;6948;51.216;6.778;2023-05-10T10:54:52;14.63;;;12.00;;
13753;SDS011;6948;51.216;6.778;2023-05-10T10:57:31;14.23;;;11.83;;
13753;SDS011;6948;51.216;6.778;2023-05-10T11:05:45;24.47;;;17.07;;
13753;SDS011;6948;51.216;6.778;2023-05-10T11:08:13;20.13;;;14.93;;
13753;SDS011;6948;51.216;6.778;2023-05-10T11:10:53;20.67;;;15.17;;
13753;SDS011;6948;51.216;6.778;2023-05-10T11:13:31;18.87;;;15.40;;
13753;SDS011;6948;51.216;6.778;2023-05-10T11:15:58;18.23;;;15.97;;
13753;SDS011;6948;51.216;6.778;2023-05-10T11:18:36;19.33;;;15.33;;
13753;SDS011;6948;51.216;6.778;2023-05-10T11:21:02;18.60;;;15.50;;
13753;SDS011;6948;51.216;6.778;2023-05-10T11:23:31;19.03;;;15.07;;
13753;SDS011;6948;51.216;6.778;2023-05-10T11:25:59;22.77;;;17.43;;
13753;SDS011;6948;51.216;6.778;2023-05-10T11:28:26;19.97;;;16.63;;
13753;SDS011;6948;51.216;6.778;2023-05-10T11:30:53;20.03;;;17.43;;
13753;SDS011;6948;51.216;6.778;2023-05-10T11:33:19;20.10;;;16.30;;
13753;SDS011;6948;51.216;6.778;2023-05-10T11:35:45;20.90;;;16.97;;
13753;SDS011;6948;51.216;6.778;2023-05-10T11:38:11;22.20;;;17.50;;
13753;SDS011;6948;51.216;6.778;2023-05-10T11:40:38;21.37;;;18.07;;
13753;SDS011;6948;51.216;6.778;2023-05-10T11:43:05;22.13;;;18.63;;
13753;SDS011;6948;51.216;6.778;2023-05-10T11:45:32;19.40;;;16.23;;
13753;SDS011;6948;51.216;6.778;2023-05-10T11:47:58;16.60;;;14.13;;
13753;SDS011;6948;51.216;6.778;2023-05-10T11:50:25;17.20;;;14.80;;
13753;SDS011;6948;51.216;6.778;2023-05-10T11:52:53;17.33;;;14.23;;
13753;SDS011;6948;51.216;6.778;2023-05-10T11:55:20;16.30;;;14.20;;
13753;SDS011;6948;51.216;6.778;2023-05-10T11:57:46;19.17;;;14.10;;
13753;SDS011;6948;51.216;6.778;2023-05-10T12:00:13;17.30;;;15.17;;
13753;SDS011;6948;51.216;6.778;2023-05-10T12:02:39;18.53;;;14.37;;
13753;SDS011;6948;51.216;6.778;2023-05-10T12:05:05;17.77;;;14.73;;
13753;SDS011;6948;51.216;6.778;2023-05-10T12:07:32;20.63;;;14.93;;
13753;SDS011;6948;51.216;6.778;2023-05-10T12:12:42;18.43;;;14.37;;
13753;SDS011;6948;51.216;6.778;2023-05-10T12:15:11;18.03;;;15.23;;
13753;SDS011;6948;51.216;6.778;2023-05-10T12:17:41;17.67;;;15.87;;
13753;SDS011;6948;51.216;6.778;2023-05-10T12:20:13;20.80;;;16.17;;
13753;SDS011;6948;51.216;6.778;2023-05-10T12:22:51;19.73;;;15.63;;
13753;SDS011;6948;51.216;6.778;2023-05-10T12:25:19;17.67;;;15.73;;
13753;SDS011;6948;51.216;6.778;2023-05-10T12:27:49;18.43;;;15.77;;
13753;SDS011;6948;51.216;6.778;2023-05-10T12:30:32;16.93;;;15.33;;
13753;SDS011;6948;51.216;6.778;2023-05-10T12:35:47;21.27;;;16.20;;
13753;SDS011;6948;51.216;6.778;2023-05-10T12:38:38;17.67;;;15.77;;
13753;SDS011;6948;51.216;6.778;2023-05-10T12:41:09;17.70;;;15.87;;
13753;SDS011;6948;51.216;6.778;2023-05-10T12:43:36;17.57;;;15.67;;
13753;SDS011;6948;51.216;6.778;2023-05-10T12:48:43;18.97;;;16.13;;
13753;SDS011;6948;51.216;6.778;2023-05-10T12:51:10;18.13;;;16.20;;
13753;SDS011;6948;51.216;6.778;2023-05-10T12:53:38;18.93;;;16.93;;
13753;SDS011;6948;51.216;6.778;2023-05-10T12:56:04;19.17;;;16.97;;
13753;SDS011;6948;51.216;6.778;2023-05-10T12:58:30;19.07;;;17.07;;
13753;SDS011;6948;51.216;6.778;2023-05-10T13:00:57;19.13;;;16.40;;
13753;SDS011;6948;51.216;6.778;2023-05-10T13:03:23;18.57;;;16.53;;
13753;SDS011;6948;51.216;6.778;2023-05-10T13:05:49;18.73;;;16.57;;
13753;SDS011;6948;51.216;6.778;2023-05-10T13:08:15;19.10;;;17.17;;
13753;SDS011;6948;51.216;6.778;2023-05-10T13:10:40;18.23;;;16.27;;
13753;SDS011;6948;51.216;6.778;2023-05-10T13:13:06;19.13;;;17.13;;
13753;SDS011;6948;51.216;6.778;2023-05-10T13:15:33;18.23;;;15.63;;
13753;SDS011;6948;51.216;6.778;2023-05-10T13:17:59;15.00;;;13.50;;
13753;SDS011;6948;51.216;6.778;2023-05-10T13:20:25;15.87;;;13.50;;
13753;SDS011;6948;51.216;6.778;2023-05-10T13:22:50;16.00;;;14.47;;
13753;SDS011;6948;51.216;6.778;2023-05-10T13:25:16;14.87;;;13.33;;
13753;SDS011;6948;51.216;6.778;2023-05-10T13:27:42;17.00;;;14.77;;
13753;SDS011;6948;51.216;6.778;2023-05-10T13:30:08;15.33;;;13.80;;
13753;SDS011;6948;51.216;6.778;2023-05-10T13:32:35;16.43;;;13.07;;
13753;SDS011;6948;51.216;6.778;2023-05-10T13:35:01;14.13;;;12.73;;
13753;SDS011;6948;51.216;6.778;2023-05-10T13:37:28;13.67;;;12.37;;
13753;SDS011;6948;51.216;6.778;2023-05-10T13:39:54;17.03;;;13.33;;
13753;SDS011;6948;51.216;6.778;2023-05-10T13:42:21;16.00;;;14.00;;
13753;SDS011;6948;51.216;6.778;2023-05-10T13:44:47;15.57;;;14.07;;
13753;SDS011;6948;51.216;6.778;2023-05-10T13:47:13;15.73;;;14.13;;
13753;SDS011;6948;51.216;6.778;2023-05-10T13:49:39;16.97;;;15.17;;
13753;SDS011;6948;51.216;6.778;2023-05-10T13:52:07;14.53;;;13.13;;
13753;SDS011;6948;51.216;6.778;2023-05-10T13:54:35;15.20;;;13.37;;
13753;SDS011;6948;51.216;6.778;2023-05-10T13:57:01;14.57;;;13.13;;
13753;SDS011;6948;51.216;6.778;2023-05-10T13:59:28;14.80;;;13.30;;
13753;SDS011;6948;51.216;6.778;2023-05-10T14:01:54;15.43;;;13.90;;
13753;SDS011;6948;51.216;6.778;2023-05-10T14:04:19;15.17;;;13.57;;
13753;SDS011;6948;51.216;6.778;2023-05-10T14:06:45;15.87;;;14.27;;
13753;SDS011;6948;51.216;6.778;2023-05-10T14:09:11;16.87;;;15.10;;
13753;SDS011;6948;51.216;6.778;2023-05-10T14:11:37;15.63;;;14.03;;
13753;SDS011;6948;51.216;6.778;2023-05-10T14:14:06;15.67;;;13.83;;
13753;SDS011;6948;51.216;6.778;2023-05-10T14:16:32;18.00;;;13.67;;
13753;SDS011;6948;51.216;6.778;2023-05-10T14:18:58;15.53;;;13.93;;
13753;SDS011;6948;51.216;6.778;2023-05-10T14:21:23;16.10;;;14.10;;
13753;SDS011;6948;51.216;6.778;2023-05-10T14:23:49;14.80;;;13.30;;
13753;SDS011;6948;51.216;6.778;2023-05-10T14:26:15;13.73;;;12.20;;
13753;SDS011;6948;51.216;6.778;2023-05-10T14:28:41;11.83;;;10.60;;
13753;SDS011;6948;51.216;6.778;2023-05-10T14:31:06;10.73;;;9.67;;
13753;SDS011;6948;51.216;6.778;2023-05-10T14:33:32;10.40;;;9.30;;
13753;SDS011;6948;51.216;6.778;2023-05-10T14:35:58;10.37;;;9.37;;
13753;SDS011;6948;51.216;6.778;2023-05-10T14:38:24;10.83;;;9.37;;
13753;SDS011;6948;51.216;6.778;2023-05-10T14:40:51;11.07;;;9.97;;
13753;SDS011;6948;51.216;6.778;2023-05-10T14:43:17;11.03;;;9.87;;
13753;SDS011;6948;51.216;6.778;2023-05-10T14:45:42;8.70;;;7.80;;
13753;SDS011;6948;51.216;6.778;2023-05-10T14:48:08;8.43;;;7.63;;
13753;SDS011;6948;51.216;6.778;2023-05-10T14:50:37;10.40;;;8.20;;
13753;SDS011;6948;51.216;6.778;2023-05-10T14:53:03;8.80;;;7.87;;
13753;SDS011;6948;51.216;6.778;2023-05-10T14:55:29;7.77;;;7.07;;
13753;SDS011;6948;51.216;6.778;2023-05-10T14:57:54;7.63;;;6.27;;
13753;SDS011;6948;51.216;6.778;2023-05-10T15:00:21;7.20;;;6.47;;
13753;SDS011;6948;51.216;6.778;2023-05-10T15:02:47;6.80;;;6.03;;
13753;SDS011;6948;51.216;6.778;2023-05-10T15:05:13;7.93;;;6.73;;
13753;SDS011;6948;51.216;6.778;2023-05-10T15:07:39;7.33;;;6.63;;
13753;SDS011;6948;51.216;6.778;2023-05-10T15:10:05;6.87;;;6.13;;
13753;SDS011;6948;51.216;6.778;2023-05-10T15:12:31;6.73;;;5.90;;
13753;SDS011;6948;51.216;6.778;2023-05-10T15:14:57;6.23;;;5.63;;
13753;SDS011;6948;51.216;6.778;2023-05-10T15:17:22;7.07;;;5.70;;
13753;SDS011;6948;51.216;6.778;2023-05-10T15:19:48;6.97;;;5.37;;